createdAt,value
2022-12-12T00:02:18.560Z,65.60
2022-12-12T00:05:20.564Z,63.30
2022-12-12T00:11:25.455Z,63.80
2022-12-12T00:14:27.245Z,63.10
2022-12-12T00:17:28.988Z,70.40
2022-12-12T00:20:30.961Z,64.80
2022-12-12T00:23:32.745Z,64.90
2022-12-12T00:26:35.284Z,71.00
2022-12-12T00:29:37.012Z,60.60
2022-12-12T00:32:38.709Z,67.20
2022-12-12T00:35:40.311Z,69.50
2022-12-12T00:38:41.958Z,66.60
2022-12-12T00:41:44.003Z,64.90
2022-12-12T00:44:45.701Z,66.30
2022-12-12T00:47:47.411Z,65.00
2022-12-12T00:50:49.205Z,65.70
2022-12-12T00:56:52.607Z,68.70
2022-12-12T00:59:58.263Z,63.70
2022-12-12T01:03:00.038Z,72.60
2022-12-12T01:06:02.095Z,72.10
2022-12-12T01:12:06.052Z,63.60
2022-12-12T01:15:09.325Z,64.80
2022-12-12T01:18:11.188Z,63.00
2022-12-12T01:21:15.495Z,61.90
2022-12-12T01:24:17.161Z,62.50
2022-12-12T01:27:18.860Z,62.20
2022-12-12T01:30:22.351Z,63.60
2022-12-12T01:33:24.206Z,60.60
2022-12-12T01:36:25.814Z,61.50
2022-12-12T01:39:27.499Z,62.20
2022-12-12T01:42:29.732Z,59.70
2022-12-12T01:45:59.725Z,62.00
2022-12-12T01:49:06.467Z,65.30
2022-12-12T01:52:16.611Z,63.70
2022-12-12T01:55:22.756Z,64.10
2022-12-12T01:58:25.133Z,66.00
2022-12-12T02:01:27.101Z,64.60
2022-12-12T02:04:28.940Z,66.20
2022-12-12T02:07:30.757Z,67.60
2022-12-12T02:13:34.961Z,63.20
2022-12-12T02:17:26.637Z,62.50
2022-12-12T02:20:47.198Z,59.60
2022-12-12T02:24:04.027Z,60.20
2022-12-12T02:27:50.332Z,61.20
2022-12-12T02:31:37.082Z,57.00
2022-12-12T02:34:50.515Z,65.30
2022-12-12T02:37:59.567Z,61.00
2022-12-12T02:41:07.550Z,62.90
2022-12-12T02:44:26.664Z,56.40
2022-12-12T02:47:31.028Z,58.20
2022-12-12T02:50:33.199Z,59.70
2022-12-12T02:53:35.085Z,56.10
2022-12-12T02:56:50.731Z,56.30
2022-12-12T03:00:07.525Z,54.80
2022-12-12T03:03:52.678Z,58.30
2022-12-12T03:07:25.750Z,59.30
2022-12-12T03:10:46.579Z,56.30
2022-12-12T03:13:57.599Z,58.30
2022-12-12T03:17:09.965Z,55.90
2022-12-12T03:20:23.184Z,54.30
2022-12-12T03:23:28.582Z,53.80
2022-12-12T03:26:34.286Z,53.70
2022-12-12T03:30:01.885Z,54.60
2022-12-12T03:33:10.847Z,56.00
2022-12-12T03:36:19.312Z,56.50
2022-12-12T03:39:29.035Z,57.00
2022-12-12T03:42:39.254Z,49.20
2022-12-12T03:46:07.595Z,52.70
2022-12-12T03:49:14.609Z,53.40
2022-12-12T03:52:27.058Z,57.70
2022-12-12T03:55:45.209Z,58.50
2022-12-12T03:58:50.320Z,57.80
2022-12-12T04:02:07.915Z,54.10
2022-12-12T04:05:20.977Z,53.60
2022-12-12T04:08:22.786Z,55.00
2022-12-12T04:11:43.340Z,53.50
2022-12-12T04:14:59.689Z,53.00
2022-12-12T04:18:16.287Z,57.10
2022-12-12T04:22:02.732Z,51.10
2022-12-12T04:25:11.384Z,59.70
2022-12-12T04:28:13.702Z,58.00
2022-12-12T04:31:16.638Z,50.10
2022-12-12T04:34:28.671Z,50.20
2022-12-12T04:37:34.083Z,51.30
2022-12-12T04:40:41.469Z,46.60
2022-12-12T04:43:44.539Z,52.00
2022-12-12T04:46:48.633Z,52.00
2022-12-12T04:49:52.823Z,50.60
2022-12-12T04:52:56.181Z,49.30
2022-12-12T04:56:00.119Z,49.70
2022-12-12T04:59:03.371Z,48.40
2022-12-12T05:02:16.045Z,44.20
2022-12-12T05:05:22.064Z,44.40
2022-12-12T05:08:28.270Z,45.60
2022-12-12T05:11:30.287Z,45.50
2022-12-12T05:14:32.078Z,48.70
2022-12-12T05:20:37.480Z,46.00
2022-12-12T05:26:41.548Z,46.90
2022-12-12T05:29:43.338Z,51.90
2022-12-12T05:32:45.057Z,53.90
2022-12-12T05:35:46.745Z,75.10
2022-12-12T05:38:48.578Z,62.90
2022-12-12T05:44:51.942Z,46.10
2022-12-12T05:50:55.635Z,48.10
2022-12-12T05:53:57.265Z,47.80
2022-12-12T05:56:59.079Z,50.00
2022-12-12T06:03:02.815Z,49.60
2022-12-12T06:06:04.707Z,50.50
2022-12-12T06:12:08.057Z,51.90
2022-12-12T06:15:10.416Z,50.00
2022-12-12T06:18:12.382Z,53.40
2022-12-12T06:21:14.044Z,57.30
2022-12-12T06:24:15.845Z,76.80
2022-12-12T06:30:19.499Z,56.70
2022-12-12T06:36:24.339Z,57.90
2022-12-12T06:39:26.337Z,58.30
2022-12-12T06:42:28.189Z,57.50
2022-12-12T06:45:29.911Z,57.80
2022-12-12T06:48:32.793Z,55.40
2022-12-12T06:51:37.409Z,58.00
2022-12-12T06:54:39.010Z,58.90
2022-12-12T06:57:40.636Z,59.40
2022-12-12T07:00:42.422Z,56.50
2022-12-12T07:03:44.369Z,50.80
2022-12-12T07:09:47.849Z,55.50
2022-12-12T07:15:57.951Z,56.70
2022-12-12T07:18:59.856Z,58.20
2022-12-12T07:25:11.640Z,58.60
2022-12-12T07:28:14.589Z,59.80
2022-12-12T07:31:19.287Z,59.50
2022-12-12T07:34:20.984Z,61.20
2022-12-12T07:40:24.513Z,61.40
2022-12-12T07:43:26.847Z,56.90
2022-12-12T07:46:29.397Z,61.20
2022-12-12T07:52:33.002Z,62.00
2022-12-12T07:58:37.473Z,59.40
2022-12-12T08:01:39.796Z,59.20
2022-12-12T08:04:42.064Z,59.10
2022-12-12T08:07:44.065Z,57.20
2022-12-12T08:10:45.790Z,60.90
2022-12-12T08:13:48.136Z,59.40
2022-12-12T08:16:49.864Z,55.30
2022-12-12T08:19:51.735Z,61.00
2022-12-12T08:22:53.741Z,61.90
2022-12-12T08:25:55.436Z,58.60
2022-12-12T08:28:58.011Z,57.70
2022-12-12T08:31:59.840Z,60.10
2022-12-12T08:38:03.993Z,62.80
2022-12-12T08:41:05.701Z,61.00
2022-12-12T08:47:10.785Z,62.00
2022-12-12T08:50:12.794Z,56.20
2022-12-12T08:53:14.505Z,60.60
2022-12-12T08:56:17.789Z,57.30
2022-12-12T08:59:19.978Z,60.90
2022-12-12T09:02:21.833Z,56.50
2022-12-12T09:05:23.716Z,61.70
2022-12-12T09:11:27.375Z,56.00
2022-12-12T09:14:29.109Z,60.90
2022-12-12T09:20:32.815Z,60.70
2022-12-12T09:23:35.065Z,59.20
2022-12-12T09:26:37.914Z,59.30
2022-12-12T09:29:40.189Z,56.50
2022-12-12T09:32:42.249Z,56.60
2022-12-12T09:35:44.399Z,58.90
2022-12-12T09:38:46.134Z,57.80
2022-12-12T09:44:54.730Z,62.40
2022-12-12T09:48:00.532Z,57.20
2022-12-12T09:51:02.707Z,56.50
2022-12-12T09:57:24.941Z,57.40
2022-12-12T10:00:27.401Z,58.70
2022-12-12T10:03:50.968Z,58.60
2022-12-12T10:07:04.813Z,53.00
2022-12-12T10:10:25.951Z,57.10
2022-12-12T10:13:30.137Z,58.00
2022-12-12T10:16:32.792Z,56.60
2022-12-12T10:19:42.820Z,54.60
2022-12-12T10:22:56.857Z,55.90
2022-12-12T10:26:24.380Z,55.80
2022-12-12T10:29:27.097Z,56.50
2022-12-12T10:32:58.324Z,53.70
2022-12-12T10:36:12.775Z,54.50
2022-12-12T10:39:24.485Z,56.00
2022-12-12T10:42:43.389Z,56.50
2022-12-12T10:45:59.329Z,50.90
2022-12-12T10:49:01.145Z,54.40
2022-12-12T10:52:05.300Z,48.60
2022-12-12T10:55:36.313Z,51.20
2022-12-12T10:58:46.319Z,49.20
2022-12-12T11:02:10.169Z,51.00
2022-12-12T11:05:25.033Z,50.70
2022-12-12T11:08:31.899Z,49.40
2022-12-12T11:11:34.191Z,51.20
2022-12-12T11:14:45.921Z,53.00
2022-12-12T11:17:50.119Z,47.90
2022-12-12T11:21:02.123Z,50.80
2022-12-12T11:24:08.381Z,50.30
2022-12-12T11:27:19.786Z,48.50
2022-12-12T11:30:32.876Z,49.80
2022-12-12T11:33:39.541Z,50.20
2022-12-12T11:36:41.920Z,51.60
2022-12-12T11:39:46.145Z,51.80
2022-12-12T11:42:47.873Z,52.10
2022-12-12T11:45:59.875Z,51.50
2022-12-12T11:52:30.672Z,57.30
2022-12-12T11:55:58.124Z,63.50
2022-12-12T11:59:23.442Z,67.70
2022-12-12T12:02:47.081Z,61.70
2022-12-12T12:06:17.895Z,58.80
2022-12-12T12:09:47.646Z,59.80
2022-12-12T12:13:02.601Z,57.90
2022-12-12T12:16:22.464Z,56.60
2022-12-12T12:19:39.324Z,57.70
2022-12-12T12:23:04.545Z,55.50
2022-12-12T12:26:11.772Z,54.80
2022-12-12T12:29:25.843Z,57.30
2022-12-12T12:32:44.082Z,55.40
2022-12-12T12:36:01.531Z,57.60
2022-12-12T12:39:30.001Z,56.30
2022-12-12T12:42:46.179Z,56.20
2022-12-12T12:46:00.009Z,58.10
2022-12-12T12:49:27.849Z,57.50
2022-12-12T12:53:12.225Z,59.00
2022-12-12T12:56:26.523Z,58.70
2022-12-12T12:59:34.859Z,57.90
2022-12-12T13:03:11.182Z,55.60
2022-12-12T13:06:19.003Z,56.80
2022-12-12T13:09:44.848Z,56.80
2022-12-12T13:12:59.019Z,56.80
2022-12-12T13:16:20.361Z,55.80
2022-12-12T13:19:35.672Z,54.00
2022-12-12T13:22:52.629Z,53.60
2022-12-12T13:25:58.456Z,55.70
2022-12-12T13:29:04.610Z,54.60
2022-12-12T13:32:37.758Z,56.10
2022-12-12T13:35:51.169Z,55.10
2022-12-12T13:38:57.986Z,54.10
2022-12-12T13:42:05.350Z,53.90
2022-12-12T13:45:32.220Z,51.60
2022-12-12T13:48:46.160Z,55.70
2022-12-12T13:51:48.605Z,58.40
2022-12-12T13:58:06.779Z,55.50
2022-12-12T14:01:27.238Z,54.00
2022-12-12T14:04:32.222Z,54.60
2022-12-12T14:07:34.260Z,53.20
2022-12-12T14:10:48.110Z,59.70
2022-12-12T14:13:51.089Z,56.20
2022-12-12T14:16:54.767Z,54.50
2022-12-12T14:19:58.656Z,59.30
2022-12-12T14:23:09.153Z,57.20
2022-12-12T14:26:29.003Z,56.50
2022-12-12T14:29:33.173Z,59.30
2022-12-12T14:32:43.882Z,60.20
2022-12-12T14:35:53.802Z,63.20
2022-12-12T14:39:21.874Z,57.90
2022-12-12T14:43:20.438Z,59.30
2022-12-12T14:45:56.969Z,62.30
2022-12-12T14:49:03.752Z,64.60
2022-12-12T14:52:05.604Z,64.60
2022-12-12T14:58:09.287Z,66.80
2022-12-12T15:04:15.546Z,68.50
2022-12-12T15:07:29.116Z,62.50
2022-12-12T15:10:30.975Z,64.80
2022-12-12T15:13:32.692Z,65.50
2022-12-12T15:16:40.692Z,68.80
2022-12-12T15:19:49.223Z,64.20
2022-12-12T15:22:57.885Z,65.70
2022-12-12T15:25:59.519Z,67.20
2022-12-12T15:29:01.150Z,64.60
2022-12-12T15:32:06.663Z,72.30
2022-12-12T15:35:08.439Z,67.10
2022-12-12T15:41:21.388Z,68.50
2022-12-12T15:44:23.193Z,65.40
2022-12-12T15:47:25.103Z,65.40
2022-12-12T15:53:49.573Z,69.20
2022-12-12T15:56:51.226Z,68.80
2022-12-12T16:00:32.341Z,69.60
2022-12-12T16:03:34.540Z,71.90
2022-12-12T16:06:45.190Z,63.90
2022-12-12T16:10:01.651Z,68.70
2022-12-12T16:13:24.952Z,70.20
2022-12-12T16:16:43.961Z,68.10
2022-12-12T16:20:01.430Z,82.20
2022-12-12T16:23:22.322Z,72.20
2022-12-12T16:26:24.031Z,70.80
2022-12-12T16:29:26.679Z,74.80
2022-12-12T16:32:28.483Z,71.30
2022-12-12T16:35:30.262Z,64.90
2022-12-12T16:41:33.907Z,60.20
2022-12-12T16:47:37.222Z,64.90
2022-12-12T16:50:38.945Z,66.90
2022-12-12T16:53:40.672Z,68.60
2022-12-12T16:56:43.195Z,67.60
2022-12-12T16:59:45.169Z,65.60
2022-12-12T17:02:46.921Z,62.30
2022-12-12T17:08:50.302Z,90.10
2022-12-12T17:11:52.221Z,82.00
2022-12-12T17:17:56.093Z,69.60
2022-12-12T17:20:58.013Z,69.30
2022-12-12T17:23:59.674Z,67.80
2022-12-12T17:30:04.803Z,76.40
2022-12-12T17:33:18.842Z,76.90
2022-12-12T17:36:21.332Z,85.60
2022-12-12T17:39:23.115Z,71.40
2022-12-12T17:42:24.938Z,75.70
2022-12-12T17:48:33.398Z,72.00
2022-12-12T17:51:35.198Z,74.00
2022-12-12T17:57:38.585Z,69.20
2022-12-12T18:00:40.333Z,66.20
2022-12-12T18:03:42.901Z,68.00
2022-12-12T18:06:44.630Z,73.70
2022-12-12T18:12:51.594Z,78.70
2022-12-12T18:15:57.928Z,116.50
2022-12-12T18:19:00.548Z,119.10
2022-12-12T18:22:02.643Z,88.40
2022-12-12T18:25:05.112Z,81.20
2022-12-12T18:28:06.859Z,89.50
2022-12-12T18:31:08.690Z,85.60
2022-12-12T18:37:12.306Z,84.00
2022-12-12T18:43:16.374Z,84.20
2022-12-12T18:46:20.588Z,83.40
2022-12-12T18:49:22.451Z,83.50
2022-12-12T18:55:30.107Z,88.00
2022-12-12T18:58:32.081Z,86.40
2022-12-12T19:01:36.175Z,83.70
2022-12-12T19:04:39.047Z,86.70
2022-12-12T19:07:41.592Z,81.70
2022-12-12T19:10:43.282Z,81.60
2022-12-12T19:13:46.529Z,82.40
2022-12-12T19:16:48.284Z,85.90
2022-12-12T19:19:50.706Z,83.20
2022-12-12T19:22:52.430Z,85.70
2022-12-12T19:28:59.548Z,90.10
2022-12-12T19:32:01.256Z,88.70
2022-12-12T19:35:02.975Z,85.30
2022-12-12T19:38:04.689Z,83.60
2022-12-12T19:41:07.704Z,82.60
2022-12-12T19:44:12.832Z,80.60
2022-12-12T19:47:14.658Z,81.60
2022-12-12T19:53:18.557Z,102.40
2022-12-12T19:56:22.295Z,115.90
2022-12-12T19:59:23.899Z,93.20
2022-12-12T20:02:25.598Z,88.10
2022-12-12T20:05:27.601Z,88.20
2022-12-12T20:08:31.104Z,86.00
2022-12-12T20:11:32.816Z,87.70
2022-12-12T20:14:36.579Z,82.10
2022-12-12T20:17:38.420Z,88.30
2022-12-12T20:23:47.058Z,87.20
2022-12-12T20:26:49.168Z,86.10
2022-12-12T20:32:52.479Z,81.10
2022-12-12T20:35:54.104Z,88.70
2022-12-12T20:38:57.373Z,91.40
2022-12-12T20:41:59.158Z,85.60
2022-12-12T20:48:07.549Z,83.80
2022-12-12T20:51:45.544Z,86.50
2022-12-12T20:54:33.647Z,78.40
2022-12-12T21:00:38.417Z,83.40
2022-12-12T21:03:41.197Z,83.40
2022-12-12T21:06:48.163Z,84.30
2022-12-12T21:09:50.230Z,79.70
2022-12-12T21:12:51.893Z,75.10
2022-12-12T21:15:53.964Z,72.80
2022-12-12T21:21:58.579Z,74.10
2022-12-12T21:25:00.308Z,65.10
2022-12-12T21:28:02.006Z,65.10
2022-12-12T21:31:06.496Z,58.80
2022-12-12T21:34:08.507Z,59.60
2022-12-12T21:37:10.196Z,57.30
2022-12-12T21:40:12.361Z,54.10
2022-12-12T21:43:14.012Z,63.70
2022-12-12T21:46:21.784Z,63.50
2022-12-12T21:49:26.894Z,63.90
2022-12-12T21:52:28.879Z,65.50
2022-12-12T21:55:30.761Z,64.50
2022-12-12T22:01:34.425Z,55.60
2022-12-12T22:07:37.574Z,56.20
2022-12-12T22:10:39.193Z,57.60
2022-12-12T22:13:42.730Z,50.00
2022-12-12T22:16:45.088Z,54.20
2022-12-12T22:19:47.215Z,48.40
2022-12-12T22:22:48.840Z,45.70
2022-12-12T22:25:50.563Z,47.70
2022-12-12T22:28:54.429Z,47.20
2022-12-12T22:31:56.154Z,45.10
2022-12-12T22:38:00.361Z,45.40
2022-12-12T22:41:02.037Z,47.20
2022-12-12T22:44:06.044Z,44.10
2022-12-12T22:47:07.698Z,43.90
2022-12-12T22:50:10.077Z,43.00
2022-12-12T22:53:13.242Z,45.50
2022-12-12T22:56:15.739Z,46.50
2022-12-12T22:59:17.424Z,48.30
2022-12-12T23:05:27.300Z,48.00
2022-12-12T23:08:29.067Z,47.80
2022-12-12T23:14:32.881Z,42.90
2022-12-12T23:20:36.282Z,42.40
2022-12-12T23:23:38.881Z,43.50
2022-12-12T23:26:41.511Z,42.10
2022-12-12T23:29:43.219Z,42.00
2022-12-12T23:35:49.755Z,37.00
2022-12-12T23:38:59.822Z,39.30
2022-12-12T23:42:01.581Z,41.90
2022-12-12T23:48:05.890Z,35.00
2022-12-12T23:51:07.547Z,40.00
2022-12-12T23:57:12.289Z,35.20
